Terminal Aerodrome Forecast
Issued by NWS Charleston, WV

Current Version | Previous Version | Text Only | Print | Product List | Glossary Off
Versions: 1 2 3 4 5 6 7 8 9 10 11 12 13 14 15 16 17 18 19 20 21 22 23 24

000
FTUS41 KRLX 301400 AAB
TAFEKN
TAF AMD
KEKN 301451Z 3015/3112 VRB03KT P6SM SCT025 BKN040
      TEMPO 3015/3017 BKN025
     FM301900 29006KT P6SM VCTS BKN050CB
     FM302300 VRB03KT P6SM BKN040
     FM310400 00000KT P6SM SCT080
     FM310500 00000KT 4SM BR SCT080
     FM310600 00000KT 3/4SM BR SCT001=

USA.gov is the U.S. government's official web portal to all federal, state and local government web resources and services.